Decoded Metar for KTPA (TAMPA in FL, USA) (IATA:TPA) | Meteo·Mobile Aviation Weather
aviador You're here:

KTPA Decoded Metar

TAMPA in FL, USA
Report Time2018-09-20 01:53:00
UTC Time2018-09-20 02:25:02
Flight Rules vfr VFR
WindCalm
Visibility9999 m
Phenomena:N/A
Clouds:Few 035 Hf
Few 220 Hf
Expected CloudBase > 2,800 ft AGL from Temp-Dew spread
CeilingNone
Temp29°C (ISA +14)
Dew Point22°C (66% RH)
Heat Index32.0°C
QNH1016 hPa
Density Alt1,900 ft
Elevation36 ft
Report Wrong Elevation
Raw Report
KTPA 200153Z 00000KT 10SM FEW035 FEW220 29/22 A2999 RMK AO2
RAB32E41 SLP154 P0000 T02940222=

Extra information for KTPA:More info

Metar Taf Metar & Taf Last 4 Metars F.Rules Stats Wind Profile Meteogram Temp Stats Airport Information Weather charts Add Link Nearby VenuesMetar ALERT Operation Metar Decoded Social comments

AIRNAV info for KTPA